sensor_id;sensor_type;location;lat;lon;timestamp;pressure;altitude;pressure_sealevel;temperature;humidity
4022;BME280;2025;48.260;16.432;2023-02-21T00:01:47;99950.91;;;6.42;64.47
4022;BME280;2025;48.260;16.432;2023-02-21T00:04:32;99951.28;;;6.08;64.40
4022;BME280;2025;48.260;16.432;2023-02-21T00:07:16;99952.50;;;5.94;65.88
4022;BME280;2025;48.260;16.432;2023-02-21T00:10:01;99945.59;;;5.93;65.00
4022;BME280;2025;48.260;16.432;2023-02-21T00:12:45;99936.38;;;5.89;65.54
4022;BME280;2025;48.260;16.432;2023-02-21T00:15:31;99936.84;;;6.04;66.28
4022;BME280;2025;48.260;16.432;2023-02-21T00:18:15;99936.22;;;5.81;66.76
4022;BME280;2025;48.260;16.432;2023-02-21T00:20:59;99940.00;;;5.98;66.85
4022;BME280;2025;48.260;16.432;2023-02-21T00:23:44;99946.06;;;6.08;65.46
4022;BME280;2025;48.260;16.432;2023-02-21T00:26:28;99943.72;;;6.05;65.64
4022;BME280;2025;48.260;16.432;2023-02-21T00:29:12;99947.16;;;6.15;65.41
4022;BME280;2025;48.260;16.432;2023-02-21T00:31:58;99948.34;;;5.91;65.75
4022;BME280;2025;48.260;16.432;2023-02-21T00:34:42;99956.34;;;5.90;66.55
4022;BME280;2025;48.260;16.432;2023-02-21T00:37:26;99946.22;;;6.06;66.04
4022;BME280;2025;48.260;16.432;2023-02-21T00:40:11;99944.22;;;5.89;66.74
4022;BME280;2025;48.260;16.432;2023-02-21T00:42:56;99938.66;;;6.32;65.18
4022;BME280;2025;48.260;16.432;2023-02-21T00:45:41;99939.19;;;6.07;65.65
4022;BME280;2025;48.260;16.432;2023-02-21T00:48:26;99930.03;;;5.91;66.04
4022;BME280;2025;48.260;16.432;2023-02-21T00:51:11;99941.28;;;5.82;67.25
4022;BME280;2025;48.260;16.432;2023-02-21T00:53:55;99942.22;;;5.62;67.67
4022;BME280;2025;48.260;16.432;2023-02-21T00:56:40;99939.44;;;5.54;67.82
4022;BME280;2025;48.260;16.432;2023-02-21T00:59:24;99940.03;;;5.67;68.01
4022;BME280;2025;48.260;16.432;2023-02-21T01:02:08;99939.94;;;5.47;68.05
4022;BME280;2025;48.260;16.432;2023-02-21T01:04:54;99930.13;;;5.30;68.45
4022;BME280;2025;48.260;16.432;2023-02-21T01:07:38;99932.91;;;5.07;68.45
4022;BME280;2025;48.260;16.432;2023-02-21T01:10:22;99943.69;;;5.24;69.21
4022;BME280;2025;48.260;16.432;2023-02-21T01:13:07;99940.38;;;5.22;68.51
4022;BME280;2025;48.260;16.432;2023-02-21T01:15:51;99936.19;;;5.31;67.98
4022;BME280;2025;48.260;16.432;2023-02-21T01:18:36;99933.22;;;5.14;69.05
4022;BME280;2025;48.260;16.432;2023-02-21T01:21:21;99936.41;;;5.18;69.03
4022;BME280;2025;48.260;16.432;2023-02-21T01:24:08;99931.06;;;4.77;69.87
4022;BME280;2025;48.260;16.432;2023-02-21T01:26:53;99936.13;;;4.90;69.71
4022;BME280;2025;48.260;16.432;2023-02-21T01:29:37;99939.59;;;4.79;70.06
4022;BME280;2025;48.260;16.432;2023-02-21T01:32:21;99936.56;;;4.74;70.68
4022;BME280;2025;48.260;16.432;2023-02-21T01:35:05;99935.47;;;4.77;71.23
4022;BME280;2025;48.260;16.432;2023-02-21T01:37:51;99942.59;;;4.54;69.70
4022;BME280;2025;48.260;16.432;2023-02-21T01:40:36;99931.00;;;4.47;71.45
4022;BME280;2025;48.260;16.432;2023-02-21T01:43:21;99925.84;;;4.56;71.50
4022;BME280;2025;48.260;16.432;2023-02-21T01:46:08;99915.22;;;4.90;70.69
4022;BME280;2025;48.260;16.432;2023-02-21T01:48:54;99915.41;;;5.60;68.22
4022;BME280;2025;48.260;16.432;2023-02-21T01:51:42;99914.44;;;5.61;67.84
4022;BME280;2025;48.260;16.432;2023-02-21T01:54:32;99913.53;;;5.81;66.93
4022;BME280;2025;48.260;16.432;2023-02-21T01:57:18;99913.59;;;5.51;67.75
4022;BME280;2025;48.260;16.432;2023-02-21T02:00:06;99915.78;;;5.96;65.90
4022;BME280;2025;48.260;16.432;2023-02-21T02:02:54;99924.88;;;6.40;63.47
4022;BME280;2025;48.260;16.432;2023-02-21T02:05:40;99914.84;;;6.26;64.72
4022;BME280;2025;48.260;16.432;2023-02-21T02:08:28;99916.06;;;6.02;65.51
4022;BME280;2025;48.260;16.432;2023-02-21T02:11:29;99918.81;;;6.49;63.68
4022;BME280;2025;48.260;16.432;2023-02-21T02:17:24;99923.13;;;7.07;61.35
4022;BME280;2025;48.260;16.432;2023-02-21T02:20:08;99914.94;;;7.20;60.27
4022;BME280;2025;48.260;16.432;2023-02-21T02:23:08;99914.53;;;7.52;59.58
4022;BME280;2025;48.260;16.432;2023-02-21T02:25:59;99919.78;;;7.80;58.52
4022;BME280;2025;48.260;16.432;2023-02-21T02:28:47;99914.78;;;8.05;57.61
4022;BME280;2025;48.260;16.432;2023-02-21T02:31:37;99911.88;;;8.08;57.58
4022;BME280;2025;48.260;16.432;2023-02-21T02:34:37;99902.09;;;8.18;57.04
4022;BME280;2025;48.260;16.432;2023-02-21T02:37:15;99906.22;;;8.38;56.39
4022;BME280;2025;48.260;16.432;2023-02-21T02:39:47;99899.34;;;8.55;55.45
4022;BME280;2025;48.260;16.432;2023-02-21T02:42:18;99890.50;;;8.56;55.49
4022;BME280;2025;48.260;16.432;2023-02-21T02:44:53;99888.38;;;8.60;55.44
4022;BME280;2025;48.260;16.432;2023-02-21T02:47:26;99883.16;;;8.86;54.66
4022;BME280;2025;48.260;16.432;2023-02-21T02:49:57;99885.69;;;9.04;53.91
4022;BME280;2025;48.260;16.432;2023-02-21T02:52:24;99885.75;;;9.12;53.62
4022;BME280;2025;48.260;16.432;2023-02-21T02:54:57;99882.97;;;9.14;53.45
4022;BME280;2025;48.260;16.432;2023-02-21T02:57:25;99866.56;;;9.20;53.43
4022;BME280;2025;48.260;16.432;2023-02-21T02:59:53;99866.56;;;9.20;52.64
4022;BME280;2025;48.260;16.432;2023-02-21T03:02:36;99855.25;;;9.19;52.90
4022;BME280;2025;48.260;16.432;2023-02-21T03:05:18;99860.44;;;9.11;53.24
4022;BME280;2025;48.260;16.432;2023-02-21T03:07:57;99861.44;;;9.10;53.51
4022;BME280;2025;48.260;16.432;2023-02-21T03:10:36;99868.25;;;8.95;53.42
4022;BME280;2025;48.260;16.432;2023-02-21T03:13:11;99857.84;;;8.85;53.93
4022;BME280;2025;48.260;16.432;2023-02-21T03:15:44;99855.69;;;8.80;53.55
4022;BME280;2025;48.260;16.432;2023-02-21T03:18:17;99858.44;;;8.71;54.12
4022;BME280;2025;48.260;16.432;2023-02-21T03:20:51;99858.75;;;8.68;54.12
4022;BME280;2025;48.260;16.432;2023-02-21T03:23:21;99855.56;;;8.82;53.73
4022;BME280;2025;48.260;16.432;2023-02-21T03:25:51;99855.75;;;8.89;53.51
4022;BME280;2025;48.260;16.432;2023-02-21T03:28:20;99858.53;;;8.87;52.95
4022;BME280;2025;48.260;16.432;2023-02-21T03:30:51;99854.66;;;8.99;52.94
4022;BME280;2025;48.260;16.432;2023-02-21T03:33:19;99868.31;;;9.03;52.55
4022;BME280;2025;48.260;16.432;2023-02-21T03:35:46;99861.22;;;8.95;53.29
4022;BME280;2025;48.260;16.432;2023-02-21T03:38:14;99870.28;;;8.75;53.62
4022;BME280;2025;48.260;16.432;2023-02-21T03:40:41;99863.75;;;8.79;53.18
4022;BME280;2025;48.260;16.432;2023-02-21T03:43:08;99863.06;;;8.77;53.17
4022;BME280;2025;48.260;16.432;2023-02-21T03:45:35;99858.53;;;8.87;52.98
4022;BME280;2025;48.260;16.432;2023-02-21T03:48:03;99867.94;;;8.72;53.51
4022;BME280;2025;48.260;16.432;2023-02-21T03:50:30;99873.69;;;8.93;52.78
4022;BME280;2025;48.260;16.432;2023-02-21T03:52:57;99874.16;;;8.89;52.93
4022;BME280;2025;48.260;16.432;2023-02-21T03:55:25;99875.31;;;8.68;54.41
4022;BME280;2025;48.260;16.432;2023-02-21T03:57:52;99874.63;;;8.40;54.52
4022;BME280;2025;48.260;16.432;2023-02-21T04:00:19;99871.75;;;8.15;54.94
4022;BME280;2025;48.260;16.432;2023-02-21T04:02:46;99878.59;;;8.08;55.59
4022;BME280;2025;48.260;16.432;2023-02-21T04:05:13;99877.47;;;7.93;55.74
4022;BME280;2025;48.260;16.432;2023-02-21T04:07:40;99871.69;;;7.89;55.88
4022;BME280;2025;48.260;16.432;2023-02-21T04:10:07;99886.63;;;7.61;56.38
4022;BME280;2025;48.260;16.432;2023-02-21T04:12:35;99884.81;;;7.62;56.74
4022;BME280;2025;48.260;16.432;2023-02-21T04:15:02;99887.00;;;7.66;56.63
4022;BME280;2025;48.260;16.432;2023-02-21T04:17:29;99884.03;;;7.79;56.11
4022;BME280;2025;48.260;16.432;2023-02-21T04:19:56;99875.13;;;7.90;55.73
4022;BME280;2025;48.260;16.432;2023-02-21T04:22:23;99882.34;;;8.23;54.64
4022;BME280;2025;48.260;16.432;2023-02-21T04:24:50;99879.34;;;8.18;54.85
4022;BME280;2025;48.260;16.432;2023-02-21T04:27:17;99876.25;;;8.41;54.62
4022;BME280;2025;48.260;16.432;2023-02-21T04:29:45;99880.38;;;8.43;54.32
4022;BME280;2025;48.260;16.432;2023-02-21T04:32:12;99867.94;;;8.46;54.34
4022;BME280;2025;48.260;16.432;2023-02-21T04:34:39;99871.91;;;8.50;54.21
4022;BME280;2025;48.260;16.432;2023-02-21T04:37:06;99879.03;;;8.39;54.59
4022;BME280;2025;48.260;16.432;2023-02-21T04:39:33;99872.56;;;8.34;54.64
4022;BME280;2025;48.260;16.432;2023-02-21T04:41:59;99875.97;;;8.44;54.45
4022;BME280;2025;48.260;16.432;2023-02-21T04:44:26;99876.28;;;8.23;55.20
4022;BME280;2025;48.260;16.432;2023-02-21T04:46:55;99877.47;;;7.93;56.35
4022;BME280;2025;48.260;16.432;2023-02-21T04:49:22;99874.28;;;7.71;57.18
4022;BME280;2025;48.260;16.432;2023-02-21T04:51:50;99878.34;;;7.84;56.86
4022;BME280;2025;48.260;16.432;2023-02-21T04:54:17;99869.19;;;7.70;57.04
4022;BME280;2025;48.260;16.432;2023-02-21T04:56:44;99891.75;;;7.53;57.63
4022;BME280;2025;48.260;16.432;2023-02-21T04:59:11;99876.97;;;7.62;57.90
4022;BME280;2025;48.260;16.432;2023-02-21T05:01:38;99878.91;;;7.59;57.89
4022;BME280;2025;48.260;16.432;2023-02-21T05:04:06;99879.13;;;7.21;58.91
4022;BME280;2025;48.260;16.432;2023-02-21T05:06:34;99880.28;;;6.99;59.89
4022;BME280;2025;48.260;16.432;2023-02-21T05:09:01;99883.19;;;6.95;59.87
4022;BME280;2025;48.260;16.432;2023-02-21T05:11:31;99877.34;;;7.11;59.62
4022;BME280;2025;48.260;16.432;2023-02-21T05:14:00;99871.66;;;7.26;59.28
4022;BME280;2025;48.260;16.432;2023-02-21T05:16:27;99868.22;;;7.25;59.32
4022;BME280;2025;48.260;16.432;2023-02-21T05:18:54;99870.16;;;7.23;59.55
4022;BME280;2025;48.260;16.432;2023-02-21T05:21:23;99869.81;;;6.99;60.13
4022;BME280;2025;48.260;16.432;2023-02-21T05:23:51;99858.56;;;6.88;60.85
4022;BME280;2025;48.260;16.432;2023-02-21T05:26:26;99848.88;;;6.99;60.36
4022;BME280;2025;48.260;16.432;2023-02-21T05:28:55;99856.94;;;7.15;59.58
4022;BME280;2025;48.260;16.432;2023-02-21T05:31:22;99861.25;;;7.06;59.67
4022;BME280;2025;48.260;16.432;2023-02-21T05:33:49;99862.84;;;7.17;59.78
4022;BME280;2025;48.260;16.432;2023-02-21T05:36:16;99866.28;;;7.27;59.37
4022;BME280;2025;48.260;16.432;2023-02-21T05:38:46;99858.41;;;7.73;58.01
4022;BME280;2025;48.260;16.432;2023-02-21T05:41:14;99857.69;;;7.98;56.89
4022;BME280;2025;48.260;16.432;2023-02-21T05:43:43;99855.28;;;8.23;55.96
4022;BME280;2025;48.260;16.432;2023-02-21T05:46:17;99845.97;;;8.47;55.41
4022;BME280;2025;48.260;16.432;2023-02-21T05:48:45;99847.69;;;8.56;54.91
4022;BME280;2025;48.260;16.432;2023-02-21T05:51:12;99851.13;;;8.56;55.11
4022;BME280;2025;48.260;16.432;2023-02-21T05:53:39;99843.59;;;8.61;54.88
4022;BME280;2025;48.260;16.432;2023-02-21T05:56:08;99851.13;;;8.56;55.04
4022;BME280;2025;48.260;16.432;2023-02-21T05:58:35;99853.16;;;8.62;54.83
4022;BME280;2025;48.260;16.432;2023-02-21T06:01:02;99853.88;;;8.55;55.08
4022;BME280;2025;48.260;16.432;2023-02-21T06:03:29;99861.09;;;8.53;55.30
4022;BME280;2025;48.260;16.432;2023-02-21T06:05:56;99845.81;;;8.48;55.25
4022;BME280;2025;48.260;16.432;2023-02-21T06:08:23;99863.44;;;8.56;55.04
4022;BME280;2025;48.260;16.432;2023-02-21T06:10:50;99863.78;;;8.61;54.84
4022;BME280;2025;48.260;16.432;2023-02-21T06:13:19;99852.94;;;8.56;55.50
4022;BME280;2025;48.260;16.432;2023-02-21T06:15:46;99868.16;;;8.52;55.07
4022;BME280;2025;48.260;16.432;2023-02-21T06:18:13;99865.06;;;8.57;54.80
4022;BME280;2025;48.260;16.432;2023-02-21T06:20:40;99869.59;;;8.47;55.66
4022;BME280;2025;48.260;16.432;2023-02-21T06:23:07;99874.84;;;8.47;55.71
4022;BME280;2025;48.260;16.432;2023-02-21T06:25:34;99867.03;;;8.55;55.29
4022;BME280;2025;48.260;16.432;2023-02-21T06:28:01;99873.66;;;8.67;55.04
4022;BME280;2025;48.260;16.432;2023-02-21T06:30:29;99876.81;;;8.71;55.23
4022;BME280;2025;48.260;16.432;2023-02-21T06:32:56;99895.50;;;8.68;55.60
4022;BME280;2025;48.260;16.432;2023-02-21T06:35:23;99905.03;;;8.69;55.25
4022;BME280;2025;48.260;16.432;2023-02-21T06:37:50;99903.03;;;8.62;55.63
4022;BME280;2025;48.260;16.432;2023-02-21T06:40:17;99906.13;;;8.58;55.80
4022;BME280;2025;48.260;16.432;2023-02-21T06:42:44;99915.38;;;8.70;55.58
4022;BME280;2025;48.260;16.432;2023-02-21T06:45:11;99923.09;;;8.72;55.78
4022;BME280;2025;48.260;16.432;2023-02-21T06:47:39;99919.16;;;8.68;56.29
4022;BME280;2025;48.260;16.432;2023-02-21T06:50:07;99922.72;;;8.67;56.37
4022;BME280;2025;48.260;16.432;2023-02-21T06:52:34;99919.16;;;8.68;55.82
4022;BME280;2025;48.260;16.432;2023-02-21T06:55:01;99927.81;;;8.86;55.81
4022;BME280;2025;48.260;16.432;2023-02-21T06:57:28;99928.31;;;8.90;55.50
4022;BME280;2025;48.260;16.432;2023-02-21T06:59:55;99928.78;;;8.85;55.44
4022;BME280;2025;48.260;16.432;2023-02-21T07:02:22;99931.13;;;8.88;55.75
4022;BME280;2025;48.260;16.432;2023-02-21T07:04:50;99936.75;;;9.01;55.09
4022;BME280;2025;48.260;16.432;2023-02-21T07:07:17;99937.75;;;9.00;55.42
4022;BME280;2025;48.260;16.432;2023-02-21T07:09:44;99945.63;;;9.00;56.04
4022;BME280;2025;48.260;16.432;2023-02-21T07:12:11;99941.06;;;9.02;55.64
4022;BME280;2025;48.260;16.432;2023-02-21T07:14:38;99944.19;;;9.06;55.58
4022;BME280;2025;48.260;16.432;2023-02-21T07:17:05;99942.44;;;9.15;56.04
4022;BME280;2025;48.260;16.432;2023-02-21T07:19:33;99941.03;;;9.28;55.41
4022;BME280;2025;48.260;16.432;2023-02-21T07:22:01;99939.56;;;9.34;55.30
4022;BME280;2025;48.260;16.432;2023-02-21T07:24:29;99938.81;;;9.42;55.26
4022;BME280;2025;48.260;16.432;2023-02-21T07:26:56;99934.38;;;9.50;54.76
4022;BME280;2025;48.260;16.432;2023-02-21T07:29:23;99936.72;;;9.54;55.07
4022;BME280;2025;48.260;16.432;2023-02-21T07:31:50;99932.94;;;9.56;54.53
4022;BME280;2025;48.260;16.432;2023-02-21T07:34:17;99937.06;;;9.59;54.83
4022;BME280;2025;48.260;16.432;2023-02-21T07:36:46;99940.56;;;9.67;54.45
4022;BME280;2025;48.260;16.432;2023-02-21T07:39:15;99943.81;;;9.69;53.75
4022;BME280;2025;48.260;16.432;2023-02-21T07:41:42;99938.28;;;9.73;55.17
4022;BME280;2025;48.260;16.432;2023-02-21T07:44:08;99944.53;;;9.80;53.99
4022;BME280;2025;48.260;16.432;2023-02-21T07:46:35;99942.25;;;9.85;54.18
4022;BME280;2025;48.260;16.432;2023-02-21T07:49:02;99939.66;;;9.93;53.73
4022;BME280;2025;48.260;16.432;2023-02-21T07:51:30;99947.22;;;9.96;54.79
4022;BME280;2025;48.260;16.432;2023-02-21T07:53:57;99948.38;;;10.02;53.29
4022;BME280;2025;48.260;16.432;2023-02-21T07:56:25;99953.81;;;10.08;54.49
4022;BME280;2025;48.260;16.432;2023-02-21T07:58:52;99943.00;;;10.20;53.53
4022;BME280;2025;48.260;16.432;2023-02-21T08:01:24;99939.06;;;10.24;52.96
4022;BME280;2025;48.260;16.432;2023-02-21T08:03:52;99946.13;;;10.23;52.91
4022;BME280;2025;48.260;16.432;2023-02-21T08:06:19;99941.84;;;10.22;52.82
4022;BME280;2025;48.260;16.432;2023-02-21T08:08:46;99946.63;;;10.19;53.56
4022;BME280;2025;48.260;16.432;2023-02-21T08:11:13;99940.69;;;10.17;53.84
4022;BME280;2025;48.260;16.432;2023-02-21T08:13:42;99941.50;;;10.25;53.22
4022;BME280;2025;48.260;16.432;2023-02-21T08:16:09;99944.84;;;10.36;53.10
4022;BME280;2025;48.260;16.432;2023-02-21T08:18:35;99953.91;;;10.41;53.85
4022;BME280;2025;48.260;16.432;2023-02-21T08:21:03;99948.16;;;10.46;54.10
4022;BME280;2025;48.260;16.432;2023-02-21T08:23:33;99949.31;;;10.60;52.78
4022;BME280;2025;48.260;16.432;2023-02-21T08:26:01;99945.69;;;10.61;52.42
4022;BME280;2025;48.260;16.432;2023-02-21T08:28:29;99946.50;;;10.69;52.69
4022;BME280;2025;48.260;16.432;2023-02-21T08:30:57;99957.88;;;10.86;52.83
4022;BME280;2025;48.260;16.432;2023-02-21T08:33:24;99964.44;;;10.90;51.45
4022;BME280;2025;48.260;16.432;2023-02-21T08:35:51;99965.25;;;10.99;51.36
4022;BME280;2025;48.260;16.432;2023-02-21T08:38:18;99975.28;;;10.95;51.62
4022;BME280;2025;48.260;16.432;2023-02-21T08:40:45;99983.88;;;10.97;51.83
4022;BME280;2025;48.260;16.432;2023-02-21T08:43:12;99984.06;;;10.96;51.15
4022;BME280;2025;48.260;16.432;2023-02-21T08:45:39;99996.03;;;11.07;50.97
4022;BME280;2025;48.260;16.432;2023-02-21T08:48:08;99997.88;;;10.98;51.54
4022;BME280;2025;48.260;16.432;2023-02-21T08:50:35;99988.81;;;10.92;51.10
4022;BME280;2025;48.260;16.432;2023-02-21T08:53:02;99993.94;;;10.94;51.84
4022;BME280;2025;48.260;16.432;2023-02-21T08:55:29;99993.91;;;11.02;51.48
4022;BME280;2025;48.260;16.432;2023-02-21T08:57:56;99990.47;;;11.02;51.64
4022;BME280;2025;48.260;16.432;2023-02-21T09:00:24;100000.03;;;11.03;51.33
4022;BME280;2025;48.260;16.432;2023-02-21T09:02:53;99989.78;;;11.00;51.59
4022;BME280;2025;48.260;16.432;2023-02-21T09:05:25;99989.63;;;11.01;51.94
4022;BME280;2025;48.260;16.432;2023-02-21T09:07:54;99994.72;;;11.11;51.94
4022;BME280;2025;48.260;16.432;2023-02-21T09:10:24;99986.81;;;11.19;51.46
4022;BME280;2025;48.260;16.432;2023-02-21T09:12:51;99985.66;;;11.13;51.77
4022;BME280;2025;48.260;16.432;2023-02-21T09:15:18;99988.47;;;11.20;51.49
4022;BME280;2025;48.260;16.432;2023-02-21T09:17:45;99995.00;;;11.41;51.66
4022;BME280;2025;48.260;16.432;2023-02-21T09:20:17;99986.41;;;11.47;50.86
4022;BME280;2025;48.260;16.432;2023-02-21T09:22:45;99982.00;;;11.39;50.82
4022;BME280;2025;48.260;16.432;2023-02-21T09:25:15;99990.19;;;11.52;50.91
4022;BME280;2025;48.260;16.432;2023-02-21T09:27:42;99978.63;;;11.62;51.18
4022;BME280;2025;48.260;16.432;2023-02-21T09:30:12;99991.47;;;11.65;50.57
4022;BME280;2025;48.260;16.432;2023-02-21T09:32:40;99981.22;;;11.70;50.42
4022;BME280;2025;48.260;16.432;2023-02-21T09:35:07;99986.84;;;11.75;51.78
4022;BME280;2025;48.260;16.432;2023-02-21T09:37:36;99995.19;;;11.87;50.48
4022;BME280;2025;48.260;16.432;2023-02-21T09:40:06;99988.13;;;11.79;50.79
4022;BME280;2025;48.260;16.432;2023-02-21T09:42:36;99991.63;;;11.71;50.65
4022;BME280;2025;48.260;16.432;2023-02-21T09:45:03;99995.72;;;11.74;53.08
4022;BME280;2025;48.260;16.432;2023-02-21T09:47:32;99989.78;;;11.72;50.86
4022;BME280;2025;48.260;16.432;2023-02-21T09:50:05;99975.00;;;11.63;51.73
4022;BME280;2025;48.260;16.432;2023-02-21T09:52:34;99974.53;;;11.59;50.96
4022;BME280;2025;48.260;16.432;2023-02-21T09:55:06;99979.50;;;11.46;50.89
4022;BME280;2025;48.260;16.432;2023-02-21T09:57:34;99978.84;;;11.44;51.49
4022;BME280;2025;48.260;16.432;2023-02-21T10:00:10;99983.16;;;11.36;51.59
4022;BME280;2025;48.260;16.432;2023-02-21T10:02:48;99989.09;;;11.38;52.12
4022;BME280;2025;48.260;16.432;2023-02-21T10:05:21;99985.78;;;11.45;52.60
4022;BME280;2025;48.260;16.432;2023-02-21T10:07:58;99992.50;;;11.55;51.42
4022;BME280;2025;48.260;16.432;2023-02-21T10:10:33;99993.13;;;11.66;51.18
4022;BME280;2025;48.260;16.432;2023-02-21T10:13:09;99991.63;;;11.63;51.98
4022;BME280;2025;48.260;16.432;2023-02-21T10:15:44;99988.47;;;11.68;51.49
4022;BME280;2025;48.260;16.432;2023-02-21T10:18:24;99986.00;;;11.74;51.49
4022;BME280;2025;48.260;16.432;2023-02-21T10:20:54;99984.31;;;11.90;51.90
4022;BME280;2025;48.260;16.432;2023-02-21T10:23:27;99987.41;;;12.01;50.87
4022;BME280;2025;48.260;16.432;2023-02-21T10:26:00;99994.31;;;12.02;50.07
4022;BME280;2025;48.260;16.432;2023-02-21T10:28:31;99987.56;;;12.00;50.30
4022;BME280;2025;48.260;16.432;2023-02-21T10:31:01;99990.91;;;11.94;51.43
4022;BME280;2025;48.260;16.432;2023-02-21T10:33:31;99976.34;;;11.98;50.77
4022;BME280;2025;48.260;16.432;2023-02-21T10:36:04;99986.00;;;12.14;50.52
4022;BME280;2025;48.260;16.432;2023-02-21T10:38:35;99971.13;;;12.67;48.79
4022;BME280;2025;48.260;16.432;2023-02-21T10:41:06;99973.75;;;13.05;47.90
4022;BME280;2025;48.260;16.432;2023-02-21T10:43:35;99957.38;;;13.84;49.35
4022;BME280;2025;48.260;16.432;2023-02-21T10:46:08;99960.63;;;15.08;45.89
4022;BME280;2025;48.260;16.432;2023-02-21T10:48:40;99953.72;;;15.49;42.92
4022;BME280;2025;48.260;16.432;2023-02-21T10:51:10;99940.25;;;15.98;41.60
4022;BME280;2025;48.260;16.432;2023-02-21T10:53:38;99929.50;;;16.33;40.92
4022;BME280;2025;48.260;16.432;2023-02-21T10:56:22;99935.88;;;16.52;39.65
4022;BME280;2025;48.260;16.432;2023-02-21T10:58:52;99934.66;;;16.48;39.68
4022;BME280;2025;48.260;16.432;2023-02-21T11:01:22;99935.41;;;16.22;40.94
4022;BME280;2025;48.260;16.432;2023-02-21T11:03:56;99932.81;;;16.42;40.18
4022;BME280;2025;48.260;16.432;2023-02-21T11:06:31;99932.19;;;16.53;41.16
4022;BME280;2025;48.260;16.432;2023-02-21T11:08:59;99932.13;;;16.20;40.47
4022;BME280;2025;48.260;16.432;2023-02-21T11:11:36;99938.72;;;16.71;39.53
4022;BME280;2025;48.260;16.432;2023-02-21T11:14:19;99930.97;;;16.76;41.01
4022;BME280;2025;48.260;16.432;2023-02-21T11:17:04;99933.19;;;15.23;42.45
4022;BME280;2025;48.260;16.432;2023-02-21T11:19:41;99930.78;;;15.34;42.34
4022;BME280;2025;48.260;16.432;2023-02-21T11:22:08;99926.84;;;16.13;41.00
4022;BME280;2025;48.260;16.432;2023-02-21T11:24:45;99919.59;;;15.87;40.42
4022;BME280;2025;48.260;16.432;2023-02-21T11:27:14;99920.75;;;14.95;44.34
4022;BME280;2025;48.260;16.432;2023-02-21T11:29:42;99928.59;;;15.10;43.77
4022;BME280;2025;48.260;16.432;2023-02-21T11:32:12;99925.66;;;15.33;43.67
4022;BME280;2025;48.260;16.432;2023-02-21T11:34:45;99914.28;;;15.87;42.28
4022;BME280;2025;48.260;16.432;2023-02-21T11:37:14;99923.59;;;16.44;41.28
4022;BME280;2025;48.260;16.432;2023-02-21T11:39:49;99918.91;;;16.60;40.57
4022;BME280;2025;48.260;16.432;2023-02-21T11:42:27;99897.22;;;16.23;41.26
4022;BME280;2025;48.260;16.432;2023-02-21T11:45:10;99907.25;;;16.41;41.37
4022;BME280;2025;48.260;16.432;2023-02-21T11:47:45;99898.03;;;16.63;41.54
4022;BME280;2025;48.260;16.432;2023-02-21T11:50:19;99909.72;;;16.89;41.63
4022;BME280;2025;48.260;16.432;2023-02-21T11:52:54;99915.41;;;16.73;40.57
4022;BME280;2025;48.260;16.432;2023-02-21T11:55:23;99902.31;;;16.11;42.72
4022;BME280;2025;48.260;16.432;2023-02-21T11:58:00;99906.78;;;15.97;41.58
4022;BME280;2025;48.260;16.432;2023-02-21T12:00:38;99904.66;;;15.03;43.91
4022;BME280;2025;48.260;16.432;2023-02-21T12:03:24;99899.41;;;14.53;45.12
4022;BME280;2025;48.260;16.432;2023-02-21T12:05:57;99909.50;;;14.22;46.38
4022;BME280;2025;48.260;16.432;2023-02-21T12:08:36;99912.53;;;13.97;47.79
4022;BME280;2025;48.260;16.432;2023-02-21T12:11:26;99903.84;;;15.03;45.80
4022;BME280;2025;48.260;16.432;2023-02-21T12:14:11;99896.44;;;15.26;43.07
4022;BME280;2025;48.260;16.432;2023-02-21T12:16:45;99887.13;;;15.02;43.73
4022;BME280;2025;48.260;16.432;2023-02-21T12:19:35;99886.38;;;15.56;43.26
4022;BME280;2025;48.260;16.432;2023-02-21T12:22:15;99885.88;;;15.33;44.07
4022;BME280;2025;48.260;16.432;2023-02-21T12:24:58;99890.28;;;14.84;44.39
4022;BME280;2025;48.260;16.432;2023-02-21T12:27:33;99884.16;;;14.12;46.36
4022;BME280;2025;48.260;16.432;2023-02-21T12:30:16;99885.88;;;13.62;47.81
4022;BME280;2025;48.260;16.432;2023-02-21T12:32:48;99867.97;;;14.72;46.08
4022;BME280;2025;48.260;16.432;2023-02-21T12:38:24;99863.34;;;15.15;44.28
4022;BME280;2025;48.260;16.432;2023-02-21T12:41:00;99867.03;;;15.69;43.72
4022;BME280;2025;48.260;16.432;2023-02-21T12:43:41;99864.72;;;16.41;42.08
4022;BME280;2025;48.260;16.432;2023-02-21T12:46:20;99856.91;;;16.99;40.51
4022;BME280;2025;48.260;16.432;2023-02-21T12:48:50;99848.88;;;17.13;40.24
4022;BME280;2025;48.260;16.432;2023-02-21T12:51:24;99846.97;;;17.33;39.93
4022;BME280;2025;48.260;16.432;2023-02-21T12:53:54;99845.53;;;17.37;42.84
4022;BME280;2025;48.260;16.432;2023-02-21T12:56:26;99834.59;;;17.52;40.75
4022;BME280;2025;48.260;16.432;2023-02-21T12:58:58;99835.09;;;18.06;38.95
4022;BME280;2025;48.260;16.432;2023-02-21T13:01:32;99846.97;;;17.33;39.54
4022;BME280;2025;48.260;16.432;2023-02-21T13:04:10;99829.28;;;16.87;41.02
4022;BME280;2025;48.260;16.432;2023-02-21T13:06:44;99834.84;;;16.79;40.50
4022;BME280;2025;48.260;16.432;2023-02-21T13:09:19;99821.13;;;16.89;40.28
4022;BME280;2025;48.260;16.432;2023-02-21T13:11:55;99819.44;;;17.01;39.72
4022;BME280;2025;48.260;16.432;2023-02-21T13:14:27;99816.59;;;16.96;41.58
4022;BME280;2025;48.260;16.432;2023-02-21T13:16:58;99818.34;;;17.22;39.58
4022;BME280;2025;48.260;16.432;2023-02-21T13:19:39;99817.22;;;16.71;40.81
4022;BME280;2025;48.260;16.432;2023-02-21T13:25:45;99795.50;;;16.94;40.34
4022;BME280;2025;48.260;16.432;2023-02-21T13:28:19;99812.38;;;16.35;41.09
4022;BME280;2025;48.260;16.432;2023-02-21T13:30:50;99808.09;;;16.20;41.21
4022;BME280;2025;48.260;16.432;2023-02-21T13:33:27;99816.06;;;16.14;41.33
4022;BME280;2025;48.260;16.432;2023-02-21T13:35:57;99807.97;;;17.07;41.49
4022;BME280;2025;48.260;16.432;2023-02-21T13:38:26;99810.31;;;17.35;40.37
4022;BME280;2025;48.260;16.432;2023-02-21T13:41:03;99814.06;;;17.98;39.83
4022;BME280;2025;48.260;16.432;2023-02-21T13:43:32;99811.25;;;17.47;38.13
4022;BME280;2025;48.260;16.432;2023-02-21T13:52:35;99818.50;;;16.35;40.87
4022;BME280;2025;48.260;16.432;2023-02-21T13:55:22;99815.63;;;15.84;42.23
4022;BME280;2025;48.260;16.432;2023-02-21T14:00:50;99816.94;;;15.46;43.50
4022;BME280;2025;48.260;16.432;2023-02-21T14:03:32;99807.91;;;15.34;43.11
4022;BME280;2025;48.260;16.432;2023-02-21T14:06:23;99804.13;;;15.70;43.81
4022;BME280;2025;48.260;16.432;2023-02-21T14:08:56;99812.25;;;15.62;43.27